createdAt,value
2022-08-08T00:00:54.153Z,101594.94
2022-08-08T00:02:39.957Z,101591.97
2022-08-08T00:05:43.281Z,101594.28
2022-08-08T00:08:27.190Z,101595.47
2022-08-08T00:11:02.099Z,101592.94
2022-08-08T00:14:15.912Z,101598.19
2022-08-08T00:16:41.624Z,101592.59
2022-08-08T00:19:17.648Z,101594.59
2022-08-08T00:22:03.842Z,101607.31
2022-08-08T00:24:43.929Z,101604.03
2022-08-08T00:27:14.947Z,101601.66
2022-08-08T00:29:56.399Z,101602.69
2022-08-08T00:32:37.576Z,101597.09
2022-08-08T00:35:48.250Z,101597.09
2022-08-08T00:38:55.705Z,101598.78
2022-08-08T00:42:08.109Z,101589.50
2022-08-08T00:45:20.956Z,101590.66
2022-08-08T00:48:33.864Z,101603.69
2022-08-08T00:51:48.804Z,101601.50
2022-08-08T00:54:23.169Z,101600.97
2022-08-08T00:57:29.448Z,101591.84
2022-08-08T01:00:34.538Z,101590.16
2022-08-08T01:04:01.913Z,101587.44
2022-08-08T01:07:01.464Z,101584.72
2022-08-08T01:10:01.551Z,101586.72
2022-08-08T01:12:53.193Z,101583.03
2022-08-08T01:15:44.427Z,101587.59
2022-08-08T01:18:25.581Z,101586.72
2022-08-08T01:22:01.760Z,101583.03
2022-08-08T01:24:53.810Z,101577.63
2022-08-08T01:27:43.493Z,101585.06
2022-08-08T01:30:53.974Z,101583.50
2022-08-08T01:34:00.638Z,101581.94
2022-08-08T01:36:48.388Z,101582.66
2022-08-08T01:39:34.975Z,101582.34
2022-08-08T01:42:35.520Z,101575.78
2022-08-08T01:45:37.601Z,101576.63
2022-08-08T01:48:30.891Z,101573.91
2022-08-08T01:52:03.348Z,101574.06
2022-08-08T01:55:26.482Z,101577.09
2022-08-08T01:58:39.585Z,101570.81
2022-08-08T02:01:54.639Z,101585.38
2022-08-08T02:04:43.018Z,101587.19
2022-08-08T02:07:41.819Z,101581.94
2022-08-08T02:10:47.376Z,101584.50
2022-08-08T02:13:52.311Z,101586.53
2022-08-08T02:16:21.109Z,101587.69
2022-08-08T02:19:57.914Z,101588.50
2022-08-08T02:22:34.081Z,101593.25
2022-08-08T02:25:32.905Z,101595.44
2022-08-08T02:28:36.377Z,101596.25
2022-08-08T02:31:58.134Z,101597.41
2022-08-08T02:35:11.983Z,101599.13
2022-08-08T02:38:31.190Z,101605.69
2022-08-08T02:42:03.741Z,101605.00
2022-08-08T02:44:56.177Z,101614.28
2022-08-08T02:47:59.863Z,101607.47
2022-08-08T02:50:55.644Z,101600.66
2022-08-08T02:53:39.010Z,101606.22
2022-08-08T02:56:10.756Z,101610.06
2022-08-08T02:59:36.781Z,101606.53
2022-08-08T03:02:36.782Z,101614.97
2022-08-08T03:05:26.394Z,101611.72
2022-08-08T03:08:28.633Z,101609.16
2022-08-08T03:11:31.786Z,101616.41
2022-08-08T03:16:00.783Z,101621.28
2022-08-08T03:17:42.633Z,101626.13
2022-08-08T03:20:27.473Z,101631.81
2022-08-08T03:23:00.389Z,101632.81
2022-08-08T03:25:33.937Z,101625.56
2022-08-08T03:28:14.215Z,101633.84
2022-08-08T03:30:48.700Z,101638.38
2022-08-08T03:33:55.338Z,101632.97
2022-08-08T03:36:16.003Z,101636.97
2022-08-08T03:39:07.445Z,101630.19
2022-08-08T03:42:27.291Z,101638.56
2022-08-08T03:44:38.793Z,101631.66
2022-08-08T03:47:20.160Z,101632.78
2022-08-08T03:49:58.343Z,101631.06
2022-08-08T03:52:33.789Z,101640.22
2022-08-08T03:55:10.211Z,101643.03
2022-08-08T03:58:31.445Z,101646.34
2022-08-08T04:01:01.889Z,101648.34
2022-08-08T04:03:58.896Z,101654.34
2022-08-08T04:06:29.519Z,101651.38
2022-08-08T04:09:08.850Z,101653.41
2022-08-08T04:11:48.469Z,101660.78
2022-08-08T04:14:35.517Z,101670.75
2022-08-08T04:17:07.049Z,101677.00
2022-08-08T04:19:51.829Z,101676.44
2022-08-08T04:22:24.162Z,101681.44
2022-08-08T04:24:53.110Z,101681.28
2022-08-08T04:28:03.423Z,101684.44
2022-08-08T04:30:17.943Z,101688.13
2022-08-08T04:32:50.577Z,101692.69
2022-08-08T04:35:22.659Z,101691.13
2022-08-08T04:37:52.446Z,101692.09
2022-08-08T04:40:24.004Z,101707.47
2022-08-08T04:42:57.360Z,101706.63
2022-08-08T04:45:27.354Z,101704.63
2022-08-08T04:47:58.303Z,101708.31
2022-08-08T04:50:34.187Z,101711.03
2022-08-08T04:53:13.988Z,101710.03
2022-08-08T04:55:55.873Z,101709.47
2022-08-08T04:58:24.674Z,101709.75
2022-08-08T05:00:52.877Z,101711.59
2022-08-08T05:04:09.782Z,101708.03
2022-08-08T05:06:13.096Z,101710.88
2022-08-08T05:08:51.619Z,101717.59
2022-08-08T05:11:24.503Z,101709.50
2022-08-08T05:13:58.543Z,101716.03
2022-08-08T05:16:53.369Z,101717.00
2022-08-08T05:20:09.244Z,101714.44
2022-08-08T05:22:12.137Z,101715.56
2022-08-08T05:24:40.849Z,101713.16
2022-08-08T05:27:10.040Z,101720.72
2022-08-08T05:29:38.481Z,101724.41
2022-08-08T05:32:12.809Z,101714.88
2022-08-08T05:34:49.538Z,101726.78
2022-08-08T05:37:39.209Z,101730.78
2022-08-08T05:40:16.658Z,101725.50
2022-08-08T05:42:54.969Z,101723.53
2022-08-08T05:45:41.501Z,101721.69
2022-08-08T05:48:14.896Z,101724.66
2022-08-08T05:50:43.673Z,101723.09
2022-08-08T05:53:54.441Z,101721.56
2022-08-08T05:56:08.319Z,101727.09
2022-08-08T05:58:56.709Z,101720.00
2022-08-08T06:01:56.317Z,101716.41
2022-08-08T06:04:23.684Z,101728.09
2022-08-08T06:07:00.215Z,101727.22
2022-08-08T06:09:58.047Z,101727.34
2022-08-08T06:12:30.183Z,101727.63
2022-08-08T06:15:06.302Z,101725.38
2022-08-08T06:17:51.216Z,101724.81
2022-08-08T06:20:29.056Z,101735.00
2022-08-08T06:22:58.340Z,101718.81
2022-08-08T06:25:58.866Z,101725.94
2022-08-08T06:28:30.406Z,101730.44
2022-08-08T06:31:04.719Z,101726.91
2022-08-08T06:34:26.635Z,101723.66
2022-08-08T06:36:53.401Z,101722.47
2022-08-08T06:39:23.806Z,101720.91
2022-08-08T06:41:57.975Z,101725.44
2022-08-08T06:44:30.229Z,101729.13
2022-08-08T06:47:00.170Z,101722.91
2022-08-08T06:49:56.551Z,101719.59
2022-08-08T06:52:19.774Z,101725.00
2022-08-08T06:54:50.125Z,101730.38
2022-08-08T06:57:18.911Z,101723.28
2022-08-08T07:00:02.624Z,101720.72
2022-08-08T07:02:37.659Z,101719.88
2022-08-08T07:05:20.298Z,101722.59
2022-08-08T07:08:16.467Z,101720.16
2022-08-08T07:10:52.897Z,101716.72
2022-08-08T07:13:25.103Z,101716.72
2022-08-08T07:16:11.852Z,101713.81
2022-08-08T07:18:58.689Z,101719.41
2022-08-08T07:22:00.471Z,101714.59
2022-08-08T07:24:56.625Z,101718.88
2022-08-08T07:27:35.286Z,101722.63
2022-08-08T07:30:21.253Z,101729.56
2022-08-08T07:32:59.436Z,101732.56
2022-08-08T07:35:30.994Z,101737.97
2022-08-08T07:38:10.242Z,101743.03
2022-08-08T07:40:47.826Z,101736.16
2022-08-08T07:43:23.147Z,101741.81
2022-08-08T07:46:23.926Z,101734.97
2022-08-08T07:48:53.182Z,101740.81
2022-08-08T07:51:23.692Z,101738.38
2022-08-08T07:54:29.808Z,101742.53
2022-08-08T07:57:12.504Z,101737.13
2022-08-08T07:59:57.154Z,101740.94
2022-08-08T08:02:38.809Z,101727.03
2022-08-08T08:05:22.181Z,101730.56
2022-08-08T08:08:07.862Z,101730.00
2022-08-08T08:10:39.541Z,101729.88
2022-08-08T08:13:25.748Z,101726.13
2022-08-08T08:16:17.122Z,101713.94
2022-08-08T08:18:55.523Z,101717.13
2022-08-08T08:21:44.814Z,101721.91
2022-08-08T08:24:18.547Z,101724.94
2022-08-08T08:26:52.946Z,101721.63
2022-08-08T08:29:23.944Z,101719.72
2022-08-08T08:31:54.026Z,101722.03
2022-08-08T08:34:31.745Z,101721.09
2022-08-08T08:37:03.389Z,101711.78
2022-08-08T08:40:00.233Z,101712.50
2022-08-08T08:42:31.879Z,101714.34
2022-08-08T08:45:16.452Z,101710.09
2022-08-08T08:47:54.189Z,101705.88
2022-08-08T08:50:32.558Z,101706.47
2022-08-08T08:53:55.572Z,101704.38
2022-08-08T08:56:01.934Z,101700.53
2022-08-08T08:58:50.339Z,101701.41
2022-08-08T09:01:21.719Z,101699.97
2022-08-08T09:03:52.461Z,101698.38
2022-08-08T09:06:34.313Z,101701.69
2022-08-08T09:09:07.454Z,101703.22
2022-08-08T09:12:01.436Z,101711.31
2022-08-08T09:14:31.960Z,101699.56
2022-08-08T09:17:11.724Z,101699.41
2022-08-08T09:22:02.632Z,101702.13
2022-08-08T09:22:32.191Z,101702.25
2022-08-08T09:25:00.911Z,101699.56
2022-08-08T09:27:55.940Z,101691.47
2022-08-08T09:30:23.044Z,101697.97
2022-08-08T09:33:12.593Z,101697.13
2022-08-08T09:35:50.538Z,101710.72
2022-08-08T09:39:15.473Z,101710.59
2022-08-08T09:41:54.802Z,101702.78
2022-08-08T09:44:48.520Z,101702.06
2022-08-08T09:47:25.432Z,101706.47
2022-08-08T09:50:13.866Z,101701.34
2022-08-08T09:52:58.512Z,101710.31
2022-08-08T09:56:05.443Z,101705.63
2022-08-08T09:58:27.919Z,101707.06
2022-08-08T10:01:15.196Z,101711.50
2022-08-08T10:04:04.938Z,101708.63
2022-08-08T10:06:35.928Z,101711.81
2022-08-08T10:09:08.421Z,101709.09
2022-08-08T10:12:27.985Z,101707.97
2022-08-08T10:14:38.662Z,101706.34
2022-08-08T10:17:56.308Z,101704.88
2022-08-08T10:20:02.890Z,101702.06
2022-08-08T10:22:35.987Z,101714.16
2022-08-08T10:25:15.707Z,101709.97
2022-08-08T10:27:46.566Z,101713.81
2022-08-08T10:30:57.258Z,101707.09
2022-08-08T10:33:12.356Z,101706.72
2022-08-08T10:36:09.022Z,101707.22
2022-08-08T10:38:35.852Z,101704.41
2022-08-08T10:41:20.071Z,101707.91
2022-08-08T10:43:52.541Z,101699.22
2022-08-08T10:46:29.517Z,101700.91
2022-08-08T10:48:59.909Z,101703.59
2022-08-08T10:51:47.259Z,101701.50
2022-08-08T10:54:24.728Z,101709.31
2022-08-08T10:57:09.294Z,101706.81
2022-08-08T10:59:39.916Z,101710.50
2022-08-08T11:02:10.669Z,101701.47
2022-08-08T11:04:53.656Z,101707.72
2022-08-08T11:08:31.248Z,101706.94
2022-08-08T11:10:29.278Z,101702.31
2022-08-08T11:13:27.874Z,101705.47
2022-08-08T11:15:52.251Z,101702.38
2022-08-08T11:18:31.140Z,101698.97
2022-08-08T11:21:09.929Z,101702.97
2022-08-08T11:23:43.467Z,101705.19
2022-08-08T11:26:20.939Z,101702.75
2022-08-08T11:29:02.537Z,101703.09
2022-08-08T11:31:46.738Z,101697.22
2022-08-08T11:34:25.682Z,101696.59
2022-08-08T11:37:14.838Z,101697.69
2022-08-08T11:39:56.936Z,101701.34
2022-08-08T11:42:30.926Z,101696.97
2022-08-08T11:45:00.279Z,101704.13
2022-08-08T11:47:39.901Z,101705.84
2022-08-08T11:50:23.398Z,101699.41
2022-08-08T11:52:53.189Z,101704.75
2022-08-08T11:55:28.675Z,101699.97
2022-08-08T11:58:15.054Z,101696.78
2022-08-08T12:00:48.845Z,101701.00
2022-08-08T12:03:37.513Z,101701.25
2022-08-08T12:06:20.117Z,101692.31
2022-08-08T12:08:49.847Z,101693.63
2022-08-08T12:11:26.986Z,101702.00
2022-08-08T12:14:05.520Z,101711.66
2022-08-08T12:16:46.558Z,101707.16
2022-08-08T12:19:15.701Z,101710.94
2022-08-08T12:22:00.422Z,101700.09
2022-08-08T12:24:32.709Z,101702.09
2022-08-08T12:27:03.657Z,101710.63
2022-08-08T12:29:42.229Z,101708.13
2022-08-08T12:32:20.812Z,101708.72
2022-08-08T12:38:17.930Z,101719.22
2022-08-08T12:40:59.225Z,101713.03
2022-08-08T12:43:46.337Z,101724.66
2022-08-08T12:48:37.889Z,101729.41
2022-08-08T12:52:28.826Z,101738.50
2022-08-08T12:55:35.355Z,101732.22
2022-08-08T12:58:19.755Z,101734.63
2022-08-08T13:00:51.772Z,101731.50
2022-08-08T13:03:34.524Z,101736.88
2022-08-08T13:09:12.215Z,101735.69
2022-08-08T13:12:19.815Z,101729.34
2022-08-08T13:14:53.430Z,101739.09
2022-08-08T13:18:09.407Z,101740.41
2022-08-08T13:20:18.879Z,101742.44
2022-08-08T13:22:48.036Z,101749.00
2022-08-08T13:25:17.039Z,101752.03
2022-08-08T13:28:06.345Z,101752.34
2022-08-08T13:31:16.579Z,101760.63
2022-08-08T13:33:50.087Z,101758.28
2022-08-08T13:36:26.157Z,101754.72
2022-08-08T13:39:00.050Z,101752.16
2022-08-08T13:41:37.945Z,101751.50
2022-08-08T13:44:14.191Z,101751.16
2022-08-08T13:46:56.817Z,101758.03
2022-08-08T13:50:36.846Z,101756.31
2022-08-08T13:52:23.164Z,101748.97
2022-08-08T13:55:09.667Z,101759.50
2022-08-08T13:58:03.461Z,101757.50
2022-08-08T14:24:29.871Z,101763.63
2022-08-08T14:28:29.055Z,101769.28
2022-08-08T16:06:00.886Z,101783.44
2022-08-08T16:13:33.512Z,101781.38
2022-08-08T16:16:54.635Z,101773.91
2022-08-08T16:31:41.679Z,101770.09
2022-08-08T16:36:49.510Z,101773.69
2022-08-08T16:40:02.443Z,101770.00
2022-08-08T16:43:51.055Z,101771.56
2022-08-08T16:46:36.335Z,101770.00
2022-08-08T16:49:51.440Z,101768.84
2022-08-08T16:57:22.813Z,101768.31
2022-08-08T16:58:49.494Z,101770.97
2022-08-08T17:01:45.651Z,101775.38
2022-08-08T17:07:51.465Z,101774.50
2022-08-08T17:18:01.392Z,101756.50
2022-08-08T17:28:49.517Z,101761.50
2022-08-08T17:52:37.700Z,101767.09
2022-08-08T17:56:05.410Z,101758.66
2022-08-08T18:04:50.695Z,101761.44
2022-08-08T18:10:46.311Z,101761.66
2022-08-08T18:13:46.303Z,101758.31
2022-08-08T18:16:20.258Z,101766.38
2022-08-08T18:18:57.617Z,101770.06
2022-08-08T18:22:00.921Z,101769.56
2022-08-08T18:24:48.648Z,101776.84
2022-08-08T18:27:48.251Z,101759.91
2022-08-08T18:34:24.986Z,101765.16
2022-08-08T18:36:44.817Z,101751.34
2022-08-08T18:39:27.855Z,101750.09
2022-08-08T18:42:03.645Z,101738.88
2022-08-08T18:44:36.197Z,101749.44
2022-08-08T18:47:05.379Z,101741.66
2022-08-08T18:49:41.114Z,101741.88
2022-08-08T18:52:30.072Z,101743.25
2022-08-08T18:55:09.693Z,101741.47
2022-08-08T18:57:48.571Z,101740.44
2022-08-08T19:00:40.334Z,101739.47
2022-08-08T19:03:20.714Z,101733.84
2022-08-08T19:05:51.873Z,101728.78
2022-08-08T19:08:58.145Z,101733.97
2022-08-08T19:11:52.428Z,101734.09
2022-08-08T19:20:28.083Z,101723.00
2022-08-08T19:26:30.311Z,101719.56
2022-08-08T19:34:35.604Z,101708.22
2022-08-08T19:41:21.260Z,101705.88
2022-08-08T19:59:53.013Z,101669.09
2022-08-08T20:10:52.696Z,101657.91
2022-08-08T20:26:35.601Z,101644.78
2022-08-08T20:30:35.527Z,101638.22
2022-08-08T20:36:05.269Z,101633.19
2022-08-08T20:38:52.755Z,101642.78
2022-08-08T22:18:23.141Z,101543.84
2022-08-08T22:20:59.377Z,101539.25
2022-08-08T22:23:53.869Z,101535.00
2022-08-08T22:26:28.806Z,101531.66
2022-08-08T22:29:14.650Z,101529.31
2022-08-08T23:54:41.602Z,101444.09
